sensor_id;sensor_type;location;lat;lon;timestamp;P1;P2;P0
23240;PMS7003;11789;53.482;9.862;2022-12-18T00:01:29;22.50;21.25;13.00
23240;PMS7003;11789;53.482;9.862;2022-12-18T00:03:57;31.00;22.50;14.00
23240;PMS7003;11789;53.482;9.862;2022-12-18T00:06:23;28.00;24.75;15.50
23240;PMS7003;11789;53.482;9.862;2022-12-18T00:08:50;25.00;21.00;13.50
23240;PMS7003;11789;53.482;9.862;2022-12-18T00:11:19;29.75;21.00;14.50
23240;PMS7003;11789;53.482;9.862;2022-12-18T00:13:47;26.50;22.00;15.00
23240;PMS7003;11789;53.482;9.862;2022-12-18T00:16:16;30.25;19.00;13.00
23240;PMS7003;11789;53.482;9.862;2022-12-18T00:18:45;24.25;23.75;14.50
23240;PMS7003;11789;53.482;9.862;2022-12-18T00:21:11;31.50;21.25;13.00
23240;PMS7003;11789;53.482;9.862;2022-12-18T00:23:38;23.50;23.00;15.00
23240;PMS7003;11789;53.482;9.862;2022-12-18T00:26:06;28.00;25.25;17.00
23240;PMS7003;11789;53.482;9.862;2022-12-18T00:28:35;33.75;26.00;17.00
23240;PMS7003;11789;53.482;9.862;2022-12-18T00:31:01;33.00;27.50;15.75
23240;PMS7003;11789;53.482;9.862;2022-12-18T00:33:31;37.50;27.75;16.00
23240;PMS7003;11789;53.482;9.862;2022-12-18T00:38:29;44.75;36.75;19.00
23240;PMS7003;11789;53.482;9.862;2022-12-18T00:40:55;29.50;28.75;20.50
23240;PMS7003;11789;53.482;9.862;2022-12-18T00:43:20;28.00;24.00;17.75
23240;PMS7003;11789;53.482;9.862;2022-12-18T00:45:46;38.00;30.75;19.00
23240;PMS7003;11789;53.482;9.862;2022-12-18T00:48:11;39.00;29.50;18.75
23240;PMS7003;11789;53.482;9.862;2022-12-18T00:50:37;39.50;28.00;18.50
23240;PMS7003;11789;53.482;9.862;2022-12-18T00:53:03;31.75;25.75;18.25
23240;PMS7003;11789;53.482;9.862;2022-12-18T00:55:28;31.75;27.00;18.50
23240;PMS7003;11789;53.482;9.862;2022-12-18T00:57:54;25.00;24.00;15.00
23240;PMS7003;11789;53.482;9.862;2022-12-18T01:00:20;31.75;27.00;18.25
23240;PMS7003;11789;53.482;9.862;2022-12-18T01:02:45;28.00;22.75;15.25
23240;PMS7003;11789;53.482;9.862;2022-12-18T01:05:11;30.00;26.50;16.00
23240;PMS7003;11789;53.482;9.862;2022-12-18T01:07:38;33.50;27.50;16.50
23240;PMS7003;11789;53.482;9.862;2022-12-18T01:10:04;24.75;24.75;16.00
23240;PMS7003;11789;53.482;9.862;2022-12-18T01:12:31;27.75;24.00;15.75
23240;PMS7003;11789;53.482;9.862;2022-12-18T01:14:57;34.25;28.00;19.25
23240;PMS7003;11789;53.482;9.862;2022-12-18T01:17:23;26.25;25.00;16.50
23240;PMS7003;11789;53.482;9.862;2022-12-18T01:19:48;28.50;27.00;16.50
23240;PMS7003;11789;53.482;9.862;2022-12-18T01:22:14;41.75;37.00;20.50
23240;PMS7003;11789;53.482;9.862;2022-12-18T01:24:39;27.00;26.00;18.50
23240;PMS7003;11789;53.482;9.862;2022-12-18T01:27:05;35.25;32.00;18.75
23240;PMS7003;11789;53.482;9.862;2022-12-18T01:29:30;30.50;26.00;18.25
23240;PMS7003;11789;53.482;9.862;2022-12-18T01:31:56;36.50;31.00;18.75
23240;PMS7003;11789;53.482;9.862;2022-12-18T01:34:22;33.50;28.25;17.50
23240;PMS7003;11789;53.482;9.862;2022-12-18T01:36:48;38.25;31.75;19.75
23240;PMS7003;11789;53.482;9.862;2022-12-18T01:39:14;44.00;34.00;21.00
23240;PMS7003;11789;53.482;9.862;2022-12-18T01:41:39;35.25;32.75;22.00
23240;PMS7003;11789;53.482;9.862;2022-12-18T01:47:18;38.00;27.00;16.50
23240;PMS7003;11789;53.482;9.862;2022-12-18T01:49:49;34.25;32.25;21.00
23240;PMS7003;11789;53.482;9.862;2022-12-18T01:52:15;33.25;27.75;18.00
23240;PMS7003;11789;53.482;9.862;2022-12-18T01:54:43;27.75;25.25;15.00
23240;PMS7003;11789;53.482;9.862;2022-12-18T01:57:09;35.25;28.75;17.00
23240;PMS7003;11789;53.482;9.862;2022-12-18T01:59:35;38.00;27.00;18.50
23240;PMS7003;11789;53.482;9.862;2022-12-18T02:02:02;39.00;32.50;21.00
23240;PMS7003;11789;53.482;9.862;2022-12-18T02:04:28;33.75;27.25;19.00
23240;PMS7003;11789;53.482;9.862;2022-12-18T02:07:03;29.75;27.75;17.50
23240;PMS7003;11789;53.482;9.862;2022-12-18T02:09:41;32.25;28.00;18.50
23240;PMS7003;11789;53.482;9.862;2022-12-18T02:12:21;33.00;30.75;18.25
23240;PMS7003;11789;53.482;9.862;2022-12-18T02:14:54;35.75;29.75;17.75
23240;PMS7003;11789;53.482;9.862;2022-12-18T02:17:46;26.75;25.50;17.00
23240;PMS7003;11789;53.482;9.862;2022-12-18T02:28:45;25.75;25.75;16.25
23240;PMS7003;11789;53.482;9.862;2022-12-18T02:31:18;25.50;25.50;15.50
23240;PMS7003;11789;53.482;9.862;2022-12-18T02:33:49;29.25;25.25;15.75
23240;PMS7003;11789;53.482;9.862;2022-12-18T02:36:22;36.25;27.50;18.50
23240;PMS7003;11789;53.482;9.862;2022-12-18T02:38:48;29.00;24.50;16.00
23240;PMS7003;11789;53.482;9.862;2022-12-18T02:41:17;28.75;24.50;15.00
23240;PMS7003;11789;53.482;9.862;2022-12-18T02:43:53;30.50;24.00;18.00
23240;PMS7003;11789;53.482;9.862;2022-12-18T02:52:01;31.00;26.00;15.50
23240;PMS7003;11789;53.482;9.862;2022-12-18T02:57:56;29.25;22.75;15.00
23240;PMS7003;11789;53.482;9.862;2022-12-18T03:00:23;28.25;26.00;18.00
23240;PMS7003;11789;53.482;9.862;2022-12-18T03:05:22;31.25;27.25;18.00
23240;PMS7003;11789;53.482;9.862;2022-12-18T03:07:57;23.75;23.25;16.50
23240;PMS7003;11789;53.482;9.862;2022-12-18T03:10:29;27.75;27.00;15.00
23240;PMS7003;11789;53.482;9.862;2022-12-18T03:13:02;22.50;14.75;6.00
23240;PMS7003;11789;53.482;9.862;2022-12-18T03:15:35;34.75;27.25;16.00
23240;PMS7003;11789;53.482;9.862;2022-12-18T03:18:10;32.75;27.25;16.00
23240;PMS7003;11789;53.482;9.862;2022-12-18T03:20:50;35.50;29.75;15.50
23240;PMS7003;11789;53.482;9.862;2022-12-18T03:23:21;34.25;26.50;15.00
23240;PMS7003;11789;53.482;9.862;2022-12-18T03:25:50;26.25;23.50;14.50
23240;PMS7003;11789;53.482;9.862;2022-12-18T03:28:21;29.00;24.75;15.25
23240;PMS7003;11789;53.482;9.862;2022-12-18T03:30:49;29.00;23.50;18.00
23240;PMS7003;11789;53.482;9.862;2022-12-18T03:33:24;33.25;27.25;16.50
23240;PMS7003;11789;53.482;9.862;2022-12-18T03:35:53;34.75;26.50;17.50
23240;PMS7003;11789;53.482;9.862;2022-12-18T03:38:18;27.25;23.50;16.00
23240;PMS7003;11789;53.482;9.862;2022-12-18T03:40:53;31.00;26.25;15.00
23240;PMS7003;11789;53.482;9.862;2022-12-18T03:46:11;25.25;25.25;15.75
23240;PMS7003;11789;53.482;9.862;2022-12-18T03:48:51;24.50;23.50;15.75
23240;PMS7003;11789;53.482;9.862;2022-12-18T03:54:03;31.00;22.00;16.00
23240;PMS7003;11789;53.482;9.862;2022-12-18T03:56:33;31.00;24.00;16.00
23240;PMS7003;11789;53.482;9.862;2022-12-18T03:59:03;30.50;26.00;18.00
23240;PMS7003;11789;53.482;9.862;2022-12-18T04:01:34;23.25;23.00;15.50
23240;PMS7003;11789;53.482;9.862;2022-12-18T04:04:04;32.00;27.50;16.50
23240;PMS7003;11789;53.482;9.862;2022-12-18T04:06:32;30.75;29.25;16.50
23240;PMS7003;11789;53.482;9.862;2022-12-18T04:08:57;27.75;24.50;15.00
23240;PMS7003;11789;53.482;9.862;2022-12-18T04:11:24;27.75;26.00;16.00
23240;PMS7003;11789;53.482;9.862;2022-12-18T04:13:49;28.25;23.00;12.00
23240;PMS7003;11789;53.482;9.862;2022-12-18T04:16:15;27.50;22.00;15.00
23240;PMS7003;11789;53.482;9.862;2022-12-18T04:18:40;25.75;24.25;15.00
23240;PMS7003;11789;53.482;9.862;2022-12-18T04:21:06;27.75;23.50;13.00
23240;PMS7003;11789;53.482;9.862;2022-12-18T04:23:31;28.00;21.50;15.00
23240;PMS7003;11789;53.482;9.862;2022-12-18T04:25:56;24.50;22.00;14.50
23240;PMS7003;11789;53.482;9.862;2022-12-18T04:28:22;23.50;20.25;14.00
23240;PMS7003;11789;53.482;9.862;2022-12-18T04:30:47;27.75;24.25;15.00
23240;PMS7003;11789;53.482;9.862;2022-12-18T04:33:13;25.75;23.75;16.25
23240;PMS7003;11789;53.482;9.862;2022-12-18T04:35:39;27.25;23.50;15.00
23240;PMS7003;11789;53.482;9.862;2022-12-18T04:38:06;29.50;19.50;13.50
23240;PMS7003;11789;53.482;9.862;2022-12-18T04:40:33;30.25;25.75;14.50
23240;PMS7003;11789;53.482;9.862;2022-12-18T04:42:59;31.00;25.00;16.00
23240;PMS7003;11789;53.482;9.862;2022-12-18T04:45:24;22.50;21.00;15.50
23240;PMS7003;11789;53.482;9.862;2022-12-18T04:47:50;28.25;24.00;12.75
23240;PMS7003;11789;53.482;9.862;2022-12-18T04:50:15;28.00;24.50;13.50
23240;PMS7003;11789;53.482;9.862;2022-12-18T04:52:41;28.00;24.00;16.00
23240;PMS7003;11789;53.482;9.862;2022-12-18T04:55:06;14.75;10.00;6.00
23240;PMS7003;11789;53.482;9.862;2022-12-18T04:57:32;26.00;18.75;15.00
23240;PMS7003;11789;53.482;9.862;2022-12-18T04:59:57;29.75;22.75;14.25
23240;PMS7003;11789;53.482;9.862;2022-12-18T05:02:23;25.00;22.50;14.50
23240;PMS7003;11789;53.482;9.862;2022-12-18T05:04:48;24.00;21.25;14.00
23240;PMS7003;11789;53.482;9.862;2022-12-18T05:07:14;24.25;21.50;15.00
23240;PMS7003;11789;53.482;9.862;2022-12-18T05:09:40;25.75;21.00;13.50
23240;PMS7003;11789;53.482;9.862;2022-12-18T05:12:05;27.00;20.50;14.00
23240;PMS7003;11789;53.482;9.862;2022-12-18T05:14:31;25.25;21.50;14.00
23240;PMS7003;11789;53.482;9.862;2022-12-18T05:16:56;25.50;23.50;16.50
23240;PMS7003;11789;53.482;9.862;2022-12-18T05:19:22;17.25;12.00;10.00
23240;PMS7003;11789;53.482;9.862;2022-12-18T05:21:47;28.00;21.75;13.50
23240;PMS7003;11789;53.482;9.862;2022-12-18T05:24:13;27.25;19.00;11.00
23240;PMS7003;11789;53.482;9.862;2022-12-18T05:26:38;22.75;19.00;15.00
23240;PMS7003;11789;53.482;9.862;2022-12-18T05:29:04;28.75;23.75;15.75
23240;PMS7003;11789;53.482;9.862;2022-12-18T05:31:29;21.25;17.25;13.00
23240;PMS7003;11789;53.482;9.862;2022-12-18T05:33:54;23.00;18.75;13.00
23240;PMS7003;11789;53.482;9.862;2022-12-18T05:36:20;25.00;22.00;13.00
23240;PMS7003;11789;53.482;9.862;2022-12-18T05:38:45;23.50;19.50;13.00
23240;PMS7003;11789;53.482;9.862;2022-12-18T05:41:11;27.00;22.75;14.00
23240;PMS7003;11789;53.482;9.862;2022-12-18T05:43:37;20.25;18.75;13.00
23240;PMS7003;11789;53.482;9.862;2022-12-18T05:46:05;22.75;18.50;12.00
23240;PMS7003;11789;53.482;9.862;2022-12-18T05:48:31;22.00;18.75;12.00
23240;PMS7003;11789;53.482;9.862;2022-12-18T05:51:02;27.00;19.00;12.00
23240;PMS7003;11789;53.482;9.862;2022-12-18T05:53:29;21.75;19.25;12.00
23240;PMS7003;11789;53.482;9.862;2022-12-18T05:55:59;26.00;19.25;12.00
23240;PMS7003;11789;53.482;9.862;2022-12-18T05:58:25;23.00;18.75;13.25
23240;PMS7003;11789;53.482;9.862;2022-12-18T06:00:51;27.50;21.25;13.00
23240;PMS7003;11789;53.482;9.862;2022-12-18T06:03:16;21.75;18.00;12.00
23240;PMS7003;11789;53.482;9.862;2022-12-18T06:05:43;27.25;20.00;14.50
23240;PMS7003;11789;53.482;9.862;2022-12-18T06:08:10;27.75;18.00;12.50
23240;PMS7003;11789;53.482;9.862;2022-12-18T06:10:36;23.00;20.00;14.00
23240;PMS7003;11789;53.482;9.862;2022-12-18T06:13:02;21.50;18.50;12.25
23240;PMS7003;11789;53.482;9.862;2022-12-18T06:15:27;23.50;18.75;10.00
23240;PMS7003;11789;53.482;9.862;2022-12-18T06:17:53;23.50;18.00;12.00
23240;PMS7003;11789;53.482;9.862;2022-12-18T06:20:18;21.50;19.50;11.00
23240;PMS7003;11789;53.482;9.862;2022-12-18T06:22:44;21.25;16.25;8.25
23240;PMS7003;11789;53.482;9.862;2022-12-18T06:25:09;21.25;20.00;13.00
23240;PMS7003;11789;53.482;9.862;2022-12-18T06:27:35;20.25;16.50;11.75
23240;PMS7003;11789;53.482;9.862;2022-12-18T06:30:00;20.25;16.50;11.50
23240;PMS7003;11789;53.482;9.862;2022-12-18T06:32:26;21.00;21.00;12.50
23240;PMS7003;11789;53.482;9.862;2022-12-18T06:34:52;17.00;13.00;6.25
23240;PMS7003;11789;53.482;9.862;2022-12-18T06:37:19;18.50;18.50;13.00
23240;PMS7003;11789;53.482;9.862;2022-12-18T06:39:44;25.00;21.00;12.75
23240;PMS7003;11789;53.482;9.862;2022-12-18T06:42:10;17.75;15.75;11.00
23240;PMS7003;11789;53.482;9.862;2022-12-18T06:44:35;21.25;18.75;13.00
23240;PMS7003;11789;53.482;9.862;2022-12-18T06:47:00;16.50;16.50;12.00
23240;PMS7003;11789;53.482;9.862;2022-12-18T06:49:26;21.25;18.75;12.50
23240;PMS7003;11789;53.482;9.862;2022-12-18T06:51:51;22.50;19.00;12.00
23240;PMS7003;11789;53.482;9.862;2022-12-18T06:54:17;26.00;15.50;11.50
23240;PMS7003;11789;53.482;9.862;2022-12-18T06:56:44;22.50;20.50;12.50
23240;PMS7003;11789;53.482;9.862;2022-12-18T06:59:10;23.00;18.25;12.25
23240;PMS7003;11789;53.482;9.862;2022-12-18T07:01:36;22.00;17.50;12.00
23240;PMS7003;11789;53.482;9.862;2022-12-18T07:04:01;19.00;16.50;10.00
23240;PMS7003;11789;53.482;9.862;2022-12-18T07:06:26;24.00;21.00;12.00
23240;PMS7003;11789;53.482;9.862;2022-12-18T07:08:52;13.00;8.75;6.75
23240;PMS7003;11789;53.482;9.862;2022-12-18T07:11:19;21.25;16.75;10.00
23240;PMS7003;11789;53.482;9.862;2022-12-18T07:13:45;18.25;18.25;12.25
23240;PMS7003;11789;53.482;9.862;2022-12-18T07:16:12;23.50;12.50;11.50
23240;PMS7003;11789;53.482;9.862;2022-12-18T07:18:42;21.75;17.50;12.00
23240;PMS7003;11789;53.482;9.862;2022-12-18T07:21:09;26.50;22.00;13.00
23240;PMS7003;11789;53.482;9.862;2022-12-18T07:23:37;20.75;18.50;11.75
23240;PMS7003;11789;53.482;9.862;2022-12-18T07:26:03;21.00;19.25;12.75
23240;PMS7003;11789;53.482;9.862;2022-12-18T07:28:30;32.75;24.50;16.00
23240;PMS7003;11789;53.482;9.862;2022-12-18T07:30:56;22.00;21.50;13.00
23240;PMS7003;11789;53.482;9.862;2022-12-18T07:33:22;23.75;19.50;15.00
23240;PMS7003;11789;53.482;9.862;2022-12-18T07:35:47;26.50;19.00;13.00
23240;PMS7003;11789;53.482;9.862;2022-12-18T07:38:13;20.25;18.75;12.00
23240;PMS7003;11789;53.482;9.862;2022-12-18T07:40:38;24.50;24.25;18.00
23240;PMS7003;11789;53.482;9.862;2022-12-18T07:43:03;26.00;23.75;16.00
23240;PMS7003;11789;53.482;9.862;2022-12-18T07:45:29;29.75;26.00;15.75
23240;PMS7003;11789;53.482;9.862;2022-12-18T07:47:54;26.00;26.00;19.00
23240;PMS7003;11789;53.482;9.862;2022-12-18T07:50:20;27.50;20.75;12.50
23240;PMS7003;11789;53.482;9.862;2022-12-18T07:52:45;23.00;21.00;15.00
23240;PMS7003;11789;53.482;9.862;2022-12-18T07:55:11;25.75;19.00;12.75
23240;PMS7003;11789;53.482;9.862;2022-12-18T07:57:37;20.25;18.50;12.50
23240;PMS7003;11789;53.482;9.862;2022-12-18T08:00:03;23.50;18.50;12.00
23240;PMS7003;11789;53.482;9.862;2022-12-18T08:02:30;20.25;17.25;13.00
23240;PMS7003;11789;53.482;9.862;2022-12-18T08:04:56;18.00;18.00;12.50
23240;PMS7003;11789;53.482;9.862;2022-12-18T08:07:22;25.25;20.75;12.00
23240;PMS7003;11789;53.482;9.862;2022-12-18T08:09:47;18.00;15.00;10.00
23240;PMS7003;11789;53.482;9.862;2022-12-18T08:12:12;19.00;19.00;12.00
23240;PMS7003;11789;53.482;9.862;2022-12-18T08:14:38;19.75;13.00;10.00
23240;PMS7003;11789;53.482;9.862;2022-12-18T08:17:03;29.75;19.75;13.00
23240;PMS7003;11789;53.482;9.862;2022-12-18T08:19:29;18.75;16.25;11.25
23240;PMS7003;11789;53.482;9.862;2022-12-18T08:21:54;20.50;16.00;10.00
23240;PMS7003;11789;53.482;9.862;2022-12-18T08:24:19;19.25;19.25;11.25
23240;PMS7003;11789;53.482;9.862;2022-12-18T08:26:45;27.75;23.50;15.50
23240;PMS7003;11789;53.482;9.862;2022-12-18T08:29:10;25.25;22.75;13.50
23240;PMS7003;11789;53.482;9.862;2022-12-18T08:31:36;25.25;20.25;13.50
23240;PMS7003;11789;53.482;9.862;2022-12-18T08:34:01;17.75;15.00;11.25
23240;PMS7003;11789;53.482;9.862;2022-12-18T08:36:27;21.00;19.67;12.00
23240;PMS7003;11789;53.482;9.862;2022-12-18T08:38:52;26.67;20.67;12.67
23240;PMS7003;11789;53.482;9.862;2022-12-18T08:41:18;19.33;16.00;12.00
23240;PMS7003;11789;53.482;9.862;2022-12-18T08:43:44;22.33;22.33;14.67
23240;PMS7003;11789;53.482;9.862;2022-12-18T08:46:32;17.33;16.33;13.33
23240;PMS7003;11789;53.482;9.862;2022-12-18T08:49:03;19.00;18.67;13.00
23240;PMS7003;11789;53.482;9.862;2022-12-18T08:51:29;22.33;20.00;14.67
23240;PMS7003;11789;53.482;9.862;2022-12-18T08:53:54;17.67;16.33;11.67
23240;PMS7003;11789;53.482;9.862;2022-12-18T08:56:20;24.25;19.75;13.75
23240;PMS7003;11789;53.482;9.862;2022-12-18T08:58:45;21.00;18.00;12.00
23240;PMS7003;11789;53.482;9.862;2022-12-18T09:01:11;19.00;18.25;12.00
23240;PMS7003;11789;53.482;9.862;2022-12-18T09:03:37;14.67;14.67;11.33
23240;PMS7003;11789;53.482;9.862;2022-12-18T09:06:03;22.67;17.33;13.33
23240;PMS7003;11789;53.482;9.862;2022-12-18T09:08:29;21.00;18.67;12.67
23240;PMS7003;11789;53.482;9.862;2022-12-18T09:10:55;23.00;18.67;13.00
23240;PMS7003;11789;53.482;9.862;2022-12-18T09:13:20;22.67;22.67;18.00
23240;PMS7003;11789;53.482;9.862;2022-12-18T09:15:47;20.67;20.33;13.00
23240;PMS7003;11789;53.482;9.862;2022-12-18T09:18:15;21.00;21.00;14.00
23240;PMS7003;11789;53.482;9.862;2022-12-18T09:20:42;20.67;18.00;12.33
23240;PMS7003;11789;53.482;9.862;2022-12-18T09:23:07;16.33;15.67;10.33
23240;PMS7003;11789;53.482;9.862;2022-12-18T09:25:34;21.33;19.33;12.67
23240;PMS7003;11789;53.482;9.862;2022-12-18T09:28:19;36.00;27.00;18.33
23240;PMS7003;11789;53.482;9.862;2022-12-18T09:30:46;22.67;18.00;12.33
23240;PMS7003;11789;53.482;9.862;2022-12-18T09:33:12;17.67;16.33;10.00
23240;PMS7003;11789;53.482;9.862;2022-12-18T09:35:39;14.33;14.33;12.00
23240;PMS7003;11789;53.482;9.862;2022-12-18T09:38:06;18.33;17.00;12.67
23240;PMS7003;11789;53.482;9.862;2022-12-18T09:40:34;20.00;16.67;10.33
23240;PMS7003;11789;53.482;9.862;2022-12-18T09:43:05;21.00;16.67;12.00
23240;PMS7003;11789;53.482;9.862;2022-12-18T09:45:41;15.67;15.67;12.00
23240;PMS7003;11789;53.482;9.862;2022-12-18T09:48:15;16.33;15.33;11.33
23240;PMS7003;11789;53.482;9.862;2022-12-18T09:50:48;19.00;15.00;11.00
23240;PMS7003;11789;53.482;9.862;2022-12-18T09:53:18;18.00;18.00;13.00
23240;PMS7003;11789;53.482;9.862;2022-12-18T09:55:47;15.33;15.00;11.00
23240;PMS7003;11789;53.482;9.862;2022-12-18T09:58:17;24.00;16.67;11.67
23240;PMS7003;11789;53.482;9.862;2022-12-18T10:00:51;18.00;16.00;12.00
23240;PMS7003;11789;53.482;9.862;2022-12-18T10:03:17;22.00;17.25;11.00
23240;PMS7003;11789;53.482;9.862;2022-12-18T10:05:55;21.00;18.00;12.75
23240;PMS7003;11789;53.482;9.862;2022-12-18T10:09:11;42.75;42.00;28.00
23240;PMS7003;11789;53.482;9.862;2022-12-18T10:28:10;20.25;18.00;12.00
23240;PMS7003;11789;53.482;9.862;2022-12-18T10:30:39;19.25;16.00;11.50
23240;PMS7003;11789;53.482;9.862;2022-12-18T10:33:20;21.50;16.25;11.00
23240;PMS7003;11789;53.482;9.862;2022-12-18T10:35:48;20.50;18.00;11.50
23240;PMS7003;11789;53.482;9.862;2022-12-18T10:40:48;16.00;16.00;10.67
23240;PMS7003;11789;53.482;9.862;2022-12-18T10:43:37;20.33;16.67;11.00
23240;PMS7003;11789;53.482;9.862;2022-12-18T10:51:04;28.33;21.33;14.00
23240;PMS7003;11789;53.482;9.862;2022-12-18T10:53:31;26.25;21.75;15.00
23240;PMS7003;11789;53.482;9.862;2022-12-18T10:55:59;19.33;17.00;11.33
23240;PMS7003;11789;53.482;9.862;2022-12-18T10:58:27;27.75;18.75;12.25
23240;PMS7003;11789;53.482;9.862;2022-12-18T11:06:08;19.00;14.67;10.67
23240;PMS7003;11789;53.482;9.862;2022-12-18T11:08:38;21.00;17.33;11.33
23240;PMS7003;11789;53.482;9.862;2022-12-18T11:11:07;18.00;18.00;12.67
23240;PMS7003;11789;53.482;9.862;2022-12-18T11:14:04;20.75;15.00;9.25
23240;PMS7003;11789;53.482;9.862;2022-12-18T11:16:36;21.00;19.00;11.75
23240;PMS7003;11789;53.482;9.862;2022-12-18T11:22:03;23.00;16.25;10.75
23240;PMS7003;11789;53.482;9.862;2022-12-18T11:24:49;16.50;16.50;11.50
23240;PMS7003;11789;53.482;9.862;2022-12-18T11:27:24;18.33;15.67;11.00
23240;PMS7003;11789;53.482;9.862;2022-12-18T11:29:50;15.00;15.00;11.00
23240;PMS7003;11789;53.482;9.862;2022-12-18T11:35:49;18.00;15.67;11.00
23240;PMS7003;11789;53.482;9.862;2022-12-18T11:37:50;15.33;15.33;10.67
23240;PMS7003;11789;53.482;9.862;2022-12-18T11:40:29;18.00;16.33;9.00
23240;PMS7003;11789;53.482;9.862;2022-12-18T11:43:00;18.67;18.67;11.67
23240;PMS7003;11789;53.482;9.862;2022-12-18T11:45:52;19.25;18.00;11.50
23240;PMS7003;11789;53.482;9.862;2022-12-18T11:48:29;19.67;18.00;12.00
23240;PMS7003;11789;53.482;9.862;2022-12-18T11:51:03;19.00;19.00;13.33
23240;PMS7003;11789;53.482;9.862;2022-12-18T11:53:34;19.33;17.00;11.00
23240;PMS7003;11789;53.482;9.862;2022-12-18T11:58:47;22.00;20.33;12.00
23240;PMS7003;11789;53.482;9.862;2022-12-18T12:03:59;25.33;18.33;12.67
23240;PMS7003;11789;53.482;9.862;2022-12-18T12:06:51;21.33;19.00;14.00
23240;PMS7003;11789;53.482;9.862;2022-12-18T12:09:28;20.00;20.00;13.67
23240;PMS7003;11789;53.482;9.862;2022-12-18T12:12:14;20.00;16.33;12.33
23240;PMS7003;11789;53.482;9.862;2022-12-18T12:17:49;19.00;17.67;11.67
23240;PMS7003;11789;53.482;9.862;2022-12-18T12:20:22;18.00;18.00;13.67
23240;PMS7003;11789;53.482;9.862;2022-12-18T12:23:06;19.00;18.00;12.00
23240;PMS7003;11789;53.482;9.862;2022-12-18T12:25:59;24.33;19.33;12.00
23240;PMS7003;11789;53.482;9.862;2022-12-18T12:29:00;22.00;16.00;11.00
23240;PMS7003;11789;53.482;9.862;2022-12-18T12:31:59;19.00;15.33;8.00
23240;PMS7003;11789;53.482;9.862;2022-12-18T12:34:34;19.00;18.00;11.33
23240;PMS7003;11789;53.482;9.862;2022-12-18T12:39:42;12.67;12.67;8.00
23240;PMS7003;11789;53.482;9.862;2022-12-18T12:42:12;12.00;12.00;9.00
23240;PMS7003;11789;53.482;9.862;2022-12-18T12:45:05;15.00;13.67;8.33
23240;PMS7003;11789;53.482;9.862;2022-12-18T12:47:40;23.25;21.25;14.50
23240;PMS7003;11789;53.482;9.862;2022-12-18T12:50:13;31.00;27.50;17.00
23240;PMS7003;11789;53.482;9.862;2022-12-18T12:52:54;17.67;16.00;12.33
23240;PMS7003;11789;53.482;9.862;2022-12-18T12:55:23;15.33;15.00;11.00
23240;PMS7003;11789;53.482;9.862;2022-12-18T13:00:44;12.00;12.00;7.33
23240;PMS7003;11789;53.482;9.862;2022-12-18T13:04:06;14.00;11.00;7.33
23240;PMS7003;11789;53.482;9.862;2022-12-18T13:06:09;12.00;10.33;7.67
23240;PMS7003;11789;53.482;9.862;2022-12-18T13:08:57;17.00;13.00;9.00
23240;PMS7003;11789;53.482;9.862;2022-12-18T13:11:32;45.50;40.50;23.75
23240;PMS7003;11789;53.482;9.862;2022-12-18T13:14:21;45.75;39.75;22.75
23240;PMS7003;11789;53.482;9.862;2022-12-18T13:16:49;51.25;43.50;26.00
23240;PMS7003;11789;53.482;9.862;2022-12-18T13:19:22;51.00;43.25;26.25
23240;PMS7003;11789;53.482;9.862;2022-12-18T13:21:54;49.75;44.75;28.00
23240;PMS7003;11789;53.482;9.862;2022-12-18T13:24:25;55.50;42.25;27.50
23240;PMS7003;11789;53.482;9.862;2022-12-18T13:26:53;57.00;44.50;27.75
23240;PMS7003;11789;53.482;9.862;2022-12-18T13:32:18;51.00;44.25;28.00
23240;PMS7003;11789;53.482;9.862;2022-12-18T13:34:45;52.25;44.75;26.00
23240;PMS7003;11789;53.482;9.862;2022-12-18T13:40:50;53.50;43.50;26.00
23240;PMS7003;11789;53.482;9.862;2022-12-18T13:46:30;60.25;46.00;28.25
23240;PMS7003;11789;53.482;9.862;2022-12-18T13:49:05;60.50;45.00;26.25
23240;PMS7003;11789;53.482;9.862;2022-12-18T13:51:39;48.75;42.50;26.75
23240;PMS7003;11789;53.482;9.862;2022-12-18T13:54:20;65.25;44.25;28.00
23240;PMS7003;11789;53.482;9.862;2022-12-18T14:02:47;41.75;38.50;24.00
23240;PMS7003;11789;53.482;9.862;2022-12-18T14:08:17;47.75;43.50;28.00
23240;PMS7003;11789;53.482;9.862;2022-12-18T14:10:44;41.00;38.00;22.50
23240;PMS7003;11789;53.482;9.862;2022-12-18T14:13:16;43.75;39.25;23.75
23240;PMS7003;11789;53.482;9.862;2022-12-18T14:15:52;47.50;42.00;23.50
23240;PMS7003;11789;53.482;9.862;2022-12-18T14:20:59;46.25;35.25;23.00
23240;PMS7003;11789;53.482;9.862;2022-12-18T14:23:37;56.75;43.75;25.00
23240;PMS7003;11789;53.482;9.862;2022-12-18T14:28:48;44.75;39.50;25.25
23240;PMS7003;11789;53.482;9.862;2022-12-18T14:31:32;44.75;38.00;26.00
23240;PMS7003;11789;53.482;9.862;2022-12-18T14:33:57;49.50;43.50;26.75
23240;PMS7003;11789;53.482;9.862;2022-12-18T14:36:24;57.25;45.25;27.75
23240;PMS7003;11789;53.482;9.862;2022-12-18T14:38:52;51.00;44.25;27.00
23240;PMS7003;11789;53.482;9.862;2022-12-18T14:41:20;63.50;51.25;30.75
23240;PMS7003;11789;53.482;9.862;2022-12-18T14:43:48;56.25;42.00;24.00
23240;PMS7003;11789;53.482;9.862;2022-12-18T14:49:02;42.50;31.00;21.75
23240;PMS7003;11789;53.482;9.862;2022-12-18T14:51:31;57.25;44.25;25.25
23240;PMS7003;11789;53.482;9.862;2022-12-18T14:53:59;50.00;43.00;21.75
23240;PMS7003;11789;53.482;9.862;2022-12-18T14:56:36;58.50;42.75;26.00
23240;PMS7003;11789;53.482;9.862;2022-12-18T14:59:21;45.25;34.75;20.50
23240;PMS7003;11789;53.482;9.862;2022-12-18T15:04:37;75.50;54.75;31.00
23240;PMS7003;11789;53.482;9.862;2022-12-18T15:07:10;64.75;48.75;28.00
23240;PMS7003;11789;53.482;9.862;2022-12-18T15:09:42;55.00;48.00;29.00
23240;PMS7003;11789;53.482;9.862;2022-12-18T15:12:28;51.00;44.75;26.75
23240;PMS7003;11789;53.482;9.862;2022-12-18T15:15:00;69.75;48.50;27.75
23240;PMS7003;11789;53.482;9.862;2022-12-18T15:17:25;66.50;52.00;29.25
23240;PMS7003;11789;53.482;9.862;2022-12-18T15:19:53;66.00;48.50;29.75
23240;PMS7003;11789;53.482;9.862;2022-12-18T15:24:52;66.25;50.50;31.00
23240;PMS7003;11789;53.482;9.862;2022-12-18T15:27:29;57.25;48.50;29.25
23240;PMS7003;11789;53.482;9.862;2022-12-18T15:30:01;70.75;49.00;28.75
23240;PMS7003;11789;53.482;9.862;2022-12-18T15:32:41;69.50;56.00;31.00
23240;PMS7003;11789;53.482;9.862;2022-12-18T15:37:36;69.25;51.50;31.75
23240;PMS7003;11789;53.482;9.862;2022-12-18T15:43:13;61.75;51.75;30.75
23240;PMS7003;11789;53.482;9.862;2022-12-18T15:45:57;68.25;52.75;31.25
23240;PMS7003;11789;53.482;9.862;2022-12-18T15:48:23;68.50;52.50;32.50
23240;PMS7003;11789;53.482;9.862;2022-12-18T15:50:49;64.50;52.00;31.00
23240;PMS7003;11789;53.482;9.862;2022-12-18T15:53:17;66.00;48.50;28.00
23240;PMS7003;11789;53.482;9.862;2022-12-18T15:55:43;60.25;51.50;32.25
23240;PMS7003;11789;53.482;9.862;2022-12-18T15:58:26;71.25;52.00;30.50